Azpeitia, Spain
Current Conditions -  °F | °C
As of 6:30 AM on Saturday 20 Dec 2014 (Local Time) from LESO Reporting Station
Overcast Overcast  
Wind Chill: 54°   Ceiling: 2200
Heat Index: 54°   Visibility: 6mi
Dew Point: 48°   Wind: 7mph
Humidity: 82%   Direction: 210°SSW
Pressure: 30.5"   Gusts: NA
Location:  43.18°N, 2.27°W
Report Text: LESO 200530Z 21006KT 9999 OVC022 12/09 Q1033
Loading
Personal Weather Stations






























Interactive Weather Map New forecast layout! Learn more

10-Day Weather Forecast

Advertisements
Track Severe Weather on mobile